createdAt,value
2023-02-25T00:01:51.271Z,7.00
2023-02-25T00:04:28.030Z,7.00
2023-02-25T00:06:55.571Z,7.00
2023-02-25T00:09:23.157Z,7.00
2023-02-25T00:11:50.173Z,7.00
2023-02-25T00:14:17.096Z,7.00
2023-02-25T00:16:44.507Z,7.00
2023-02-25T00:19:11.666Z,7.00
2023-02-25T00:21:38.618Z,7.00
2023-02-25T00:24:15.923Z,7.00
2023-02-25T00:26:43.788Z,7.00
2023-02-25T00:29:14.070Z,7.00
2023-02-25T00:31:41.128Z,7.00
2023-02-25T00:34:09.381Z,7.00
2023-02-25T00:36:36.379Z,7.00
2023-02-25T00:39:06.018Z,7.10
2023-02-25T00:41:35.422Z,7.10
2023-02-25T00:44:07.470Z,7.10
2023-02-25T00:46:35.426Z,7.00
2023-02-25T00:49:03.393Z,7.00
2023-02-25T00:51:32.532Z,7.00
2023-02-25T00:53:59.868Z,7.00
2023-02-25T00:56:27.078Z,7.00
2023-02-25T00:58:54.547Z,6.90
2023-02-25T01:01:27.717Z,6.90
2023-02-25T01:03:56.693Z,6.90
2023-02-25T01:06:26.741Z,6.80
2023-02-25T01:08:54.448Z,6.80
2023-02-25T01:11:27.174Z,6.80
2023-02-25T01:13:54.548Z,6.70
2023-02-25T01:16:26.516Z,6.70
2023-02-25T01:18:55.858Z,6.60
2023-02-25T01:21:28.834Z,6.60
2023-02-25T01:24:02.298Z,6.70
2023-02-25T01:26:32.110Z,6.70
2023-02-25T01:28:59.438Z,6.70
2023-02-25T01:31:31.509Z,6.70
2023-02-25T01:34:02.432Z,6.70
2023-02-25T01:36:31.279Z,6.60
2023-02-25T01:38:59.361Z,6.60
2023-02-25T01:41:31.439Z,6.60
2023-02-25T01:44:34.160Z,6.50
2023-02-25T01:47:01.612Z,6.40
2023-02-25T01:49:36.469Z,6.40
2023-02-25T01:52:13.090Z,6.30
2023-02-25T01:54:40.910Z,6.40
2023-02-25T01:57:11.583Z,6.30
2023-02-25T01:59:40.234Z,6.30
2023-02-25T02:02:13.207Z,6.30
2023-02-25T02:04:42.918Z,6.30
2023-02-25T02:07:09.923Z,6.30
2023-02-25T02:09:40.423Z,6.20
2023-02-25T02:12:07.897Z,6.30
2023-02-25T02:14:40.178Z,6.30
2023-02-25T02:17:41.138Z,6.30
2023-02-25T02:20:21.280Z,6.40
2023-02-25T02:23:22.201Z,6.50
2023-02-25T02:26:06.619Z,6.50
2023-02-25T02:28:53.710Z,6.60
2023-02-25T02:31:36.428Z,6.60
2023-02-25T02:34:20.142Z,6.70
2023-02-25T02:37:05.626Z,6.70
2023-02-25T02:39:44.866Z,6.70
2023-02-25T02:42:27.543Z,6.70
2023-02-25T02:45:05.064Z,6.70
2023-02-25T02:47:40.418Z,6.70
2023-02-25T02:50:09.022Z,6.60
2023-02-25T02:52:41.641Z,6.60
2023-02-25T02:55:22.380Z,6.70
2023-02-25T02:57:55.579Z,6.70
2023-02-25T03:00:31.483Z,6.80
2023-02-25T03:03:09.680Z,6.80
2023-02-25T03:05:38.760Z,6.80
2023-02-25T03:08:12.820Z,6.80
2023-02-25T03:10:40.083Z,6.80
2023-02-25T03:13:07.038Z,6.90
2023-02-25T03:15:34.748Z,6.90
2023-02-25T03:18:08.064Z,6.90
2023-02-25T03:20:45.360Z,6.90
2023-02-25T03:23:17.210Z,6.90
2023-02-25T03:25:59.630Z,7.00
2023-02-25T03:53:37.308Z,7.00
2023-02-25T03:56:11.218Z,7.00
2023-02-25T03:58:42.238Z,7.00
2023-02-25T04:01:17.148Z,7.10
2023-02-25T04:03:44.806Z,7.10
2023-02-25T04:06:13.036Z,7.10
2023-02-25T04:08:42.096Z,7.20
2023-02-25T04:11:09.034Z,7.20
2023-02-25T04:13:36.200Z,7.20
2023-02-25T04:16:04.812Z,7.10
2023-02-25T04:18:31.929Z,7.10
2023-02-25T04:20:58.915Z,7.10
2023-02-25T04:23:26.371Z,7.00
2023-02-25T04:25:53.462Z,7.00
2023-02-25T04:28:20.673Z,7.00
2023-02-25T04:30:47.900Z,7.00
2023-02-25T04:33:14.913Z,7.10
2023-02-25T04:35:42.084Z,7.10
2023-02-25T04:38:09.769Z,7.10
2023-02-25T04:40:37.303Z,7.10
2023-02-25T04:43:09.957Z,7.10
2023-02-25T04:45:36.933Z,7.00
2023-02-25T04:48:06.611Z,7.00
2023-02-25T04:50:33.754Z,7.00
2023-02-25T04:53:02.377Z,7.00
2023-02-25T04:55:29.695Z,7.00
2023-02-25T04:57:56.695Z,7.00
2023-02-25T05:00:24.511Z,7.00
2023-02-25T05:02:51.445Z,6.90
2023-02-25T05:05:19.473Z,6.90
2023-02-25T05:07:46.472Z,6.90
2023-02-25T05:10:15.163Z,6.80
2023-02-25T05:12:43.553Z,6.80
2023-02-25T05:15:13.376Z,6.80
2023-02-25T05:17:40.258Z,6.70
2023-02-25T05:20:12.178Z,6.70
2023-02-25T05:22:40.314Z,6.70
2023-02-25T05:25:08.520Z,6.60
2023-02-25T05:27:35.750Z,6.60
2023-02-25T05:30:03.080Z,6.50
2023-02-25T05:32:31.987Z,6.50
2023-02-25T05:34:58.957Z,6.50
2023-02-25T05:37:26.080Z,6.50
2023-02-25T05:39:53.235Z,6.50
2023-02-25T05:42:20.050Z,6.50
2023-02-25T05:44:47.065Z,6.60
2023-02-25T05:47:15.290Z,6.60
2023-02-25T05:49:43.309Z,6.60
2023-02-25T05:52:11.494Z,6.60
2023-02-25T05:54:41.946Z,6.60
2023-02-25T05:57:08.999Z,6.60
2023-02-25T05:59:36.964Z,6.60
2023-02-25T06:02:04.187Z,6.50
2023-02-25T06:04:31.173Z,6.50
2023-02-25T06:06:58.044Z,6.50
2023-02-25T06:09:24.943Z,6.50
2023-02-25T06:11:52.710Z,6.40
2023-02-25T06:14:19.606Z,6.40
2023-02-25T06:16:46.550Z,6.40
2023-02-25T06:19:13.605Z,6.40
2023-02-25T06:21:43.446Z,6.30
2023-02-25T06:24:10.616Z,6.30
2023-02-25T06:26:42.535Z,6.30
2023-02-25T06:29:10.654Z,6.30
2023-02-25T06:31:37.684Z,6.30
2023-02-25T06:34:05.300Z,6.20
2023-02-25T06:36:33.153Z,6.20
2023-02-25T06:39:00.750Z,6.20
2023-02-25T06:41:27.807Z,6.20
2023-02-25T06:43:55.307Z,6.10
2023-02-25T06:46:28.568Z,6.10
2023-02-25T06:48:57.599Z,6.10
2023-02-25T06:51:25.829Z,6.10
2023-02-25T06:53:53.448Z,6.00
2023-02-25T06:56:22.264Z,6.00
2023-02-25T06:58:51.066Z,6.00
2023-02-25T07:01:18.098Z,6.00
2023-02-25T07:03:45.504Z,6.00
2023-02-25T07:06:14.019Z,6.00
2023-02-25T07:08:40.974Z,6.00
2023-02-25T07:11:19.764Z,6.00
2023-02-25T07:13:48.069Z,6.00
2023-02-25T07:16:17.229Z,6.00
2023-02-25T07:18:47.580Z,6.10
2023-02-25T07:21:14.661Z,6.20
2023-02-25T07:23:45.158Z,6.30
2023-02-25T07:26:13.558Z,6.50
2023-02-25T07:28:41.502Z,6.60
2023-02-25T07:31:17.397Z,6.60
2023-02-25T07:33:47.604Z,6.70
2023-02-25T07:36:15.305Z,6.70
2023-02-25T07:38:51.316Z,6.70
2023-02-25T07:41:19.591Z,6.70
2023-02-25T07:43:47.178Z,6.80
2023-02-25T07:46:14.217Z,6.90
2023-02-25T07:48:41.269Z,6.90
2023-02-25T07:51:19.619Z,7.00
2023-02-25T07:53:51.426Z,7.00
2023-02-25T07:56:20.585Z,7.10
2023-02-25T07:58:47.909Z,7.10
2023-02-25T08:01:26.862Z,7.10
2023-02-25T08:03:56.884Z,7.10
2023-02-25T08:06:27.913Z,7.20
2023-02-25T08:08:55.446Z,7.20
2023-02-25T08:11:24.517Z,7.30
2023-02-25T08:13:51.889Z,7.40
2023-02-25T08:16:22.732Z,7.50
2023-02-25T08:18:51.991Z,7.60
2023-02-25T08:21:24.027Z,7.70
2023-02-25T08:23:53.164Z,7.70
2023-02-25T08:26:22.581Z,7.70
2023-02-25T08:28:51.174Z,7.70
2023-02-25T08:31:18.733Z,7.80
2023-02-25T08:33:54.910Z,7.80
2023-02-25T08:36:24.848Z,7.80
2023-02-25T08:38:52.959Z,7.90
2023-02-25T08:41:21.346Z,7.90
2023-02-25T08:43:52.041Z,8.00
2023-02-25T08:46:21.113Z,8.00
2023-02-25T08:48:54.383Z,8.10
2023-02-25T08:51:23.640Z,8.10
2023-02-25T08:53:50.845Z,8.20
2023-02-25T08:56:17.832Z,8.40
2023-02-25T08:58:44.834Z,8.60
2023-02-25T09:01:15.282Z,8.60
2023-02-25T09:03:54.070Z,8.60
2023-02-25T09:06:22.455Z,8.60
2023-02-25T09:08:51.105Z,8.50
2023-02-25T09:11:19.709Z,8.60
2023-02-25T09:13:46.650Z,8.70
2023-02-25T09:16:18.045Z,8.70
2023-02-25T09:18:49.237Z,8.80
2023-02-25T09:21:16.561Z,8.70
2023-02-25T09:23:43.670Z,8.70
2023-02-25T09:26:10.928Z,8.70
2023-02-25T09:28:37.766Z,8.70
2023-02-25T09:31:07.178Z,8.70
2023-02-25T09:33:36.020Z,8.70
2023-02-25T09:36:11.713Z,8.80
2023-02-25T09:38:40.327Z,8.80
2023-02-25T09:41:34.778Z,8.80
2023-02-25T09:44:17.586Z,8.90
2023-02-25T09:46:55.681Z,9.00
2023-02-25T09:49:42.811Z,9.00
2023-02-25T09:52:28.946Z,9.00
2023-02-25T09:55:06.197Z,9.00
2023-02-25T09:57:38.918Z,9.20
2023-02-25T10:00:17.194Z,9.40
2023-02-25T10:02:48.311Z,9.60
2023-02-25T10:05:22.971Z,9.70
2023-02-25T10:08:19.277Z,9.60
2023-02-25T10:11:06.204Z,9.40
2023-02-25T10:13:38.014Z,9.00
2023-02-25T10:16:26.063Z,8.60
2023-02-25T10:19:06.815Z,8.30
2023-02-25T10:21:47.350Z,8.10
2023-02-25T10:24:34.784Z,8.10
2023-02-25T10:27:30.630Z,8.10
2023-02-25T10:30:13.420Z,8.20
2023-02-25T10:32:43.592Z,8.40
2023-02-25T10:35:25.839Z,8.50
2023-02-25T10:37:53.262Z,8.70
2023-02-25T10:40:24.536Z,8.80
2023-02-25T10:42:55.075Z,8.90
2023-02-25T10:45:32.621Z,9.00
2023-02-25T10:48:22.706Z,9.10
2023-02-25T10:51:14.117Z,9.30
2023-02-25T10:54:02.038Z,9.30
2023-02-25T10:56:33.885Z,9.30
2023-02-25T10:59:05.404Z,9.30
2023-02-25T11:01:46.146Z,9.20
2023-02-25T11:04:18.578Z,9.20
2023-02-25T11:06:46.399Z,9.30
2023-02-25T11:09:19.756Z,9.50
2023-02-25T11:11:57.813Z,9.70
2023-02-25T11:14:33.151Z,10.00
2023-02-25T11:17:15.003Z,10.20
2023-02-25T11:19:45.086Z,10.40
2023-02-25T11:22:19.721Z,10.90
2023-02-25T11:25:02.579Z,11.00
2023-02-25T11:27:41.552Z,10.50
2023-02-25T11:30:19.270Z,9.90
2023-02-25T11:32:54.270Z,9.50
2023-02-25T11:35:35.630Z,9.30
2023-02-25T11:38:28.333Z,9.20
2023-02-25T11:40:56.159Z,9.20
2023-02-25T11:43:25.875Z,9.30
2023-02-25T11:46:09.015Z,9.40
2023-02-25T11:48:55.954Z,9.50
2023-02-25T11:51:36.466Z,9.60
2023-02-25T11:54:50.804Z,9.50
2023-02-25T11:58:06.530Z,9.60
2023-02-25T12:00:36.273Z,9.60
2023-02-25T12:03:33.916Z,9.70
2023-02-25T12:06:21.547Z,9.80
2023-02-25T12:08:51.716Z,10.00
2023-02-25T12:11:37.191Z,10.10
2023-02-25T12:14:35.436Z,10.30
2023-02-25T12:17:26.103Z,10.50
2023-02-25T12:20:22.890Z,10.60
2023-02-25T12:23:11.780Z,10.60
2023-02-25T12:26:01.901Z,10.30
2023-02-25T12:29:13.090Z,10.10
2023-02-25T12:31:48.196Z,10.20
2023-02-25T12:34:24.324Z,10.40
2023-02-25T12:37:27.101Z,10.50
2023-02-25T12:40:19.616Z,10.60
2023-02-25T12:42:49.519Z,10.60
2023-02-25T12:46:00.706Z,10.50
2023-02-25T12:48:48.821Z,10.40
2023-02-25T12:51:32.236Z,10.50
2023-02-25T12:54:18.902Z,10.70
2023-02-25T12:57:34.197Z,10.90
2023-02-25T13:00:31.467Z,10.90
2023-02-25T13:03:22.111Z,10.80
2023-02-25T13:06:13.267Z,10.80
2023-02-25T13:08:56.860Z,10.60
2023-02-25T13:12:07.299Z,10.40
2023-02-25T13:14:45.489Z,10.20
2023-02-25T13:17:49.357Z,10.10
2023-02-25T13:20:37.786Z,10.10
2023-02-25T13:23:45.374Z,10.10
2023-02-25T13:26:41.479Z,10.10
2023-02-25T13:29:34.914Z,10.10
2023-02-25T13:32:14.025Z,10.10
2023-02-25T13:35:09.077Z,10.10
2023-02-25T13:37:41.777Z,10.00
2023-02-25T13:40:45.911Z,10.00
2023-02-25T13:43:34.259Z,10.00
2023-02-25T13:46:14.680Z,10.00
2023-02-25T13:49:19.187Z,9.90
2023-02-25T13:52:20.341Z,9.90
2023-02-25T13:55:00.948Z,9.80
2023-02-25T13:57:52.275Z,9.70
2023-02-25T14:00:43.434Z,9.70
2023-02-25T14:03:47.920Z,9.70
2023-02-25T14:06:29.966Z,9.70
2023-02-25T14:09:09.399Z,9.80
2023-02-25T14:11:46.090Z,9.80
2023-02-25T14:14:30.932Z,9.70
2023-02-25T14:17:33.344Z,9.70
2023-02-25T14:20:11.846Z,9.70
2023-02-25T14:22:47.878Z,9.80
2023-02-25T14:25:45.591Z,9.90
2023-02-25T14:28:31.010Z,9.90
2023-02-25T14:31:15.323Z,9.90
2023-02-25T14:33:50.851Z,10.00
2023-02-25T14:36:35.674Z,10.00
2023-02-25T14:39:36.949Z,10.30
2023-02-25T14:42:31.503Z,10.70
2023-02-25T14:45:10.737Z,11.00
2023-02-25T14:48:12.030Z,11.20
2023-02-25T14:50:59.816Z,10.80
2023-02-25T14:54:00.903Z,10.30
2023-02-25T14:56:59.774Z,10.00
2023-02-25T15:00:02.457Z,9.80
2023-02-25T15:02:51.068Z,9.60
2023-02-25T15:05:38.339Z,9.50
2023-02-25T15:08:32.994Z,9.40
2023-02-25T15:11:31.167Z,9.40
2023-02-25T15:14:25.763Z,9.30
2023-02-25T15:17:12.294Z,9.30
2023-02-25T15:20:16.292Z,9.30
2023-02-25T15:23:03.864Z,9.30
2023-02-25T15:25:43.299Z,9.30
2023-02-25T15:28:28.936Z,9.20
2023-02-25T15:31:01.837Z,9.20
2023-02-25T15:33:41.214Z,9.10
2023-02-25T15:36:14.171Z,9.10
2023-02-25T15:38:50.775Z,9.20
2023-02-25T15:41:26.794Z,9.20
2023-02-25T15:44:01.165Z,9.10
2023-02-25T15:46:34.194Z,9.10
2023-02-25T15:49:40.521Z,9.00
2023-02-25T15:52:10.041Z,9.00
2023-02-25T15:54:37.677Z,9.00
2023-02-25T15:57:24.672Z,8.90
2023-02-25T15:59:57.855Z,8.90
2023-02-25T16:02:30.706Z,8.90
2023-02-25T16:05:09.707Z,8.90
2023-02-25T16:07:43.737Z,8.90
2023-02-25T16:10:28.707Z,8.90
2023-02-25T16:12:57.649Z,8.80
2023-02-25T16:15:34.268Z,8.80
2023-02-25T16:18:17.469Z,8.80
2023-02-25T16:20:48.809Z,8.70
2023-02-25T16:23:17.240Z,8.60
2023-02-25T16:26:05.763Z,8.60
2023-02-25T16:28:35.546Z,8.60
2023-02-25T16:31:23.653Z,8.50
2023-02-25T16:34:05.028Z,8.50
2023-02-25T16:36:50.665Z,8.40
2023-02-25T16:39:23.721Z,8.40
2023-02-25T16:41:52.581Z,8.40
2023-02-25T16:44:23.236Z,8.30
2023-02-25T16:46:53.526Z,8.30
2023-02-25T16:49:32.740Z,8.20
2023-02-25T16:52:00.489Z,8.20
2023-02-25T16:54:33.302Z,8.20
2023-02-25T16:57:02.659Z,8.10
2023-02-25T16:59:33.302Z,8.10
2023-02-25T17:02:03.827Z,8.00
2023-02-25T17:04:34.645Z,8.00
2023-02-25T17:07:17.928Z,7.90
2023-02-25T17:09:47.920Z,7.90
2023-02-25T17:12:30.772Z,7.90
2023-02-25T17:15:01.444Z,7.80
2023-02-25T17:17:40.021Z,7.80
2023-02-25T17:20:15.132Z,7.70
2023-02-25T17:22:44.143Z,7.70
2023-02-25T17:25:17.768Z,7.60
2023-02-25T17:27:47.532Z,7.60
2023-02-25T17:30:37.767Z,7.60
2023-02-25T17:33:05.053Z,7.50
2023-02-25T17:35:33.156Z,7.50
2023-02-25T17:38:00.210Z,7.50
2023-02-25T17:40:29.153Z,7.40
2023-02-25T17:43:26.024Z,7.40
2023-02-25T17:45:58.623Z,7.40
2023-02-25T17:48:30.324Z,7.30
2023-02-25T17:51:10.350Z,7.30
2023-02-25T17:53:54.629Z,7.30
2023-02-25T17:56:30.802Z,7.20
2023-02-25T17:59:07.837Z,7.20
2023-02-25T18:01:58.702Z,7.20
2023-02-25T18:04:41.459Z,7.10
2023-02-25T18:07:29.739Z,7.10
2023-02-25T18:09:57.634Z,7.10
2023-02-25T18:12:31.962Z,7.00
2023-02-25T18:15:02.906Z,7.00
2023-02-25T18:17:39.316Z,7.00
2023-02-25T18:20:25.466Z,7.00
2023-02-25T18:22:53.558Z,6.90
2023-02-25T18:25:34.808Z,6.90
2023-02-25T18:28:02.691Z,6.90
2023-02-25T18:30:31.312Z,6.80
2023-02-25T18:32:59.224Z,6.80
2023-02-25T18:35:28.131Z,6.80
2023-02-25T18:37:57.215Z,6.70
2023-02-25T18:40:51.710Z,6.70
2023-02-25T18:43:28.931Z,6.70
2023-02-25T18:45:55.858Z,6.60
2023-02-25T18:48:23.119Z,6.60
2023-02-25T18:50:50.026Z,6.60
2023-02-25T18:53:23.316Z,6.60
2023-02-25T18:55:51.529Z,6.50
2023-02-25T18:58:21.328Z,6.50
2023-02-25T19:00:54.744Z,6.50
2023-02-25T19:03:39.335Z,6.50
2023-02-25T19:06:07.181Z,6.40
2023-02-25T19:08:34.261Z,6.40
2023-02-25T19:11:01.293Z,6.40
2023-02-25T19:13:30.012Z,6.30
2023-02-25T19:15:57.119Z,6.30
2023-02-25T19:18:24.276Z,6.30
2023-02-25T19:20:51.523Z,6.30
2023-02-25T19:23:18.988Z,6.30
2023-02-25T19:25:50.574Z,6.20
2023-02-25T19:28:17.445Z,6.20
2023-02-25T19:30:44.945Z,6.20
2023-02-25T19:33:12.588Z,6.10
2023-02-25T19:35:42.259Z,6.10
2023-02-25T19:38:14.916Z,6.10
2023-02-25T19:40:44.260Z,6.10
2023-02-25T19:43:12.067Z,6.00
2023-02-25T19:45:40.817Z,6.00
2023-02-25T19:48:08.967Z,6.00
2023-02-25T19:50:37.221Z,6.00
2023-02-25T19:53:05.727Z,6.00
2023-02-25T19:55:33.579Z,6.00
2023-02-25T19:58:00.541Z,5.90
2023-02-25T20:00:27.617Z,5.90
2023-02-25T20:02:56.181Z,5.80
2023-02-25T20:05:23.998Z,5.80
2023-02-25T20:07:51.277Z,5.80
2023-02-25T20:10:19.290Z,5.80
2023-02-25T20:12:46.963Z,5.80
2023-02-25T20:15:15.334Z,5.80
2023-02-25T20:17:44.717Z,5.70
2023-02-25T20:20:13.139Z,5.70
2023-02-25T20:22:40.539Z,5.70
2023-02-25T20:25:09.949Z,5.70
2023-02-25T20:27:39.283Z,5.60
2023-02-25T20:30:07.064Z,5.60
2023-02-25T20:32:34.533Z,5.60
2023-02-25T20:35:02.127Z,5.60
2023-02-25T20:37:37.365Z,5.60
2023-02-25T20:40:11.976Z,5.50
2023-02-25T20:42:39.091Z,5.50
2023-02-25T20:45:06.630Z,5.50
2023-02-25T20:47:35.467Z,5.50
2023-02-25T20:50:04.129Z,5.40
2023-02-25T20:52:31.466Z,5.40
2023-02-25T20:54:58.621Z,5.40
2023-02-25T20:57:27.513Z,5.40
2023-02-25T20:59:54.771Z,5.40
2023-02-25T21:02:22.209Z,5.40
2023-02-25T21:04:49.384Z,5.30
2023-02-25T21:07:17.244Z,5.30
2023-02-25T21:09:44.453Z,5.30
2023-02-25T21:12:11.745Z,5.30
2023-02-25T21:14:39.316Z,5.30
2023-02-25T21:17:09.616Z,5.30
2023-02-25T21:19:38.974Z,5.20
2023-02-25T21:22:07.439Z,5.20
2023-02-25T21:24:34.793Z,5.20
2023-02-25T21:27:02.123Z,5.10
2023-02-25T21:29:32.045Z,5.10
2023-02-25T21:31:59.239Z,5.10
2023-02-25T21:34:26.401Z,5.00
2023-02-25T21:36:55.264Z,5.00
2023-02-25T21:39:22.713Z,5.00
2023-02-25T21:41:49.663Z,5.00
2023-02-25T21:44:18.104Z,5.00
2023-02-25T21:46:45.119Z,5.00
2023-02-25T21:49:12.215Z,4.90
2023-02-25T21:51:40.339Z,4.90
2023-02-25T21:54:09.462Z,4.90
2023-02-25T21:56:36.679Z,4.90
2023-02-25T21:59:05.582Z,4.90
2023-02-25T22:01:36.693Z,4.90
2023-02-25T22:04:04.860Z,4.80
2023-02-25T22:06:31.906Z,4.80
2023-02-25T22:08:59.430Z,4.80
2023-02-25T22:11:29.111Z,4.80
2023-02-25T22:13:56.215Z,4.80
2023-02-25T22:16:23.973Z,4.80
2023-02-25T22:18:52.332Z,4.80
2023-02-25T22:21:24.885Z,4.80
2023-02-25T22:23:57.006Z,4.80
2023-02-25T22:26:27.931Z,4.80
2023-02-25T22:28:59.998Z,4.80
2023-02-25T22:31:27.396Z,4.80
2023-02-25T22:33:56.107Z,4.80
2023-02-25T22:36:23.714Z,4.80
2023-02-25T22:38:50.866Z,4.80
2023-02-25T22:41:20.754Z,4.80
2023-02-25T22:43:48.648Z,4.80
2023-02-25T22:46:30.282Z,4.80
2023-02-25T22:48:57.506Z,4.80
2023-02-25T22:51:33.389Z,4.80
2023-02-25T22:54:00.619Z,4.80
2023-02-25T22:56:45.112Z,4.70
2023-02-25T22:59:12.902Z,4.70
2023-02-25T23:01:40.335Z,4.70
2023-02-25T23:04:09.410Z,4.70
2023-02-25T23:06:43.846Z,4.70
2023-02-25T23:09:13.138Z,4.70
2023-02-25T23:11:41.500Z,4.60
2023-02-25T23:14:08.474Z,4.60
2023-02-25T23:16:40.341Z,4.60
2023-02-25T23:19:10.047Z,4.60
2023-02-25T23:21:38.697Z,4.60
2023-02-25T23:24:07.741Z,4.50
2023-02-25T23:26:39.338Z,4.60
2023-02-25T23:29:08.648Z,4.50
2023-02-25T23:31:37.980Z,4.50
2023-02-25T23:34:09.185Z,4.50
2023-02-25T23:36:37.864Z,4.40
2023-02-25T23:39:05.603Z,4.40
2023-02-25T23:41:34.683Z,4.40
2023-02-25T23:44:01.865Z,4.40
2023-02-25T23:46:30.600Z,4.30
2023-02-25T23:49:00.173Z,4.30
2023-02-25T23:51:28.449Z,4.40
2023-02-25T23:53:57.179Z,4.40
2023-02-25T23:56:24.967Z,4.50
2023-02-25T23:58:54.003Z,4.60
